Terminal Aerodrome Forecast
Issued by NWS Sterling, VA

Home | Current Version | Previous Version | Text Only | Print | Product List | Glossary On
Versions: 1 2 3 4 5 6 7 8 9 10 11 12 13 14 15 16 17 18 19 20 21
000
FTUS41 KLWX 302134 AAA
TAFCHO
TAF AMD
KCHO 302134Z 3022/3118 VRB04KT P6SM VCTS SCT040CB BKN100
      TEMPO 3022/3023 30012G25KT 3SM -TSRA BKN040CB
     FM310000 33004KT P6SM SCT060
     FM310400 VRB03KT P6SM FEW250=

USA.gov is the U.S. government's official web portal to all federal, state and local government web resources and services.